Oval Lp No.11 — JL6306 — position and weather

sailwx.info

Track history (hours):
 
Tides and Currents Weather Stations Pressure Air Temp Water Temp Dewpoint Dewpoint Depression Visibility Wind Speed Wind Dir Waves Ship Positions

Oval Lp No.11

Last reported at 2015-Mar-28 11:30 UTC. Time now 2015-Mar-28 22:17 UTC.
Position N 34°03' E 134°60'.

Length 67 m; draft 3.6 m.

Type: Ship (hazmat cat A). MMSI: 431500366.

Date/timePositionNaut miles runAvg speedWind from/ knotsBaromVisibWave heightAir tempDewpointWater temp
2015-Mar-28 11:30N 34°03' E 134°60'1212.6
2015-Mar-28 10:33N 34°15' E 134°59'1111.1
2015-Mar-28 09:31N 34°25' E 135°06'1111.3
2015-Mar-28 08:33N 34°32' E 135°16'8 8.2
2015-Mar-28 07:33N 34°34' E 135°26'0 0.1
2015-Mar-28 06:28N 34°34' E 135°26'0 0.0
2015-Mar-28 05:28N 34°34' E 135°26'0 0.0
2015-Mar-28 04:28N 34°34' E 135°26'1 0.5
2015-Mar-28 02:14N 34°33' E 135°26'0 0.0
2015-Mar-28 00:26N 34°33' E 135°26'2 2.5
2015-Mar-27 23:32N 34°33' E 135°24'3 2.9
2015-Mar-27 22:30N 34°32' E 135°20'0 0.0
2015-Mar-27 21:24N 34°32' E 135°20'0 0.0
2015-Mar-27 20:30N 34°32' E 135°20'0 0.0
2015-Mar-27 19:18N 34°32' E 135°20'0 0.0
2015-Mar-27 18:24N 34°32' E 135°20'0 0.0
2015-Mar-27 17:12N 34°32' E 135°20'0 0.0
2015-Mar-27 15:30N 34°32' E 135°20'0 0.0
2015-Mar-27 14:30N 34°32' E 135°20'0 0.0
2015-Mar-27 13:30N 34°32' E 135°20'0 0.0
2015-Mar-27 12:30N 34°32' E 135°20'0 0.0
2015-Mar-27 11:24N 34°32' E 135°20'0 0.0
2015-Mar-27 10:30N 34°32' E 135°20'0 0.0
2015-Mar-27 09:33N 34°32' E 135°20'5 4.8
2015-Mar-27 08:31N 34°34' E 135°26'0 0.0
2015-Mar-27 05:32N 34°34' E 135°26'2 2.2
2015-Mar-27 04:24N 34°36' E 135°23'0 0.0
2015-Mar-27 03:18N 34°36' E 135°23'2 3.2
2015-Mar-27 02:32N 34°33' E 135°24'1 0.5
2015-Mar-27 01:14N 34°34' E 135°25'0 0.0
2015-Mar-27 00:31N 34°34' E 135°25'0 0.0
2015-Mar-26 23:32N 34°34' E 135°25'2 1.5
2015-Mar-26 22:14N 34°34' E 135°23'0 0.0
2015-Mar-26 21:08N 34°34' E 135°23'0 0.0
2015-Mar-26 20:32N 34°34' E 135°23'0 0.0
2015-Mar-26 19:32N 34°34' E 135°23'0 0.0
2015-Mar-26 18:26N 34°34' E 135°23'0 0.0
2015-Mar-26 15:32N 34°34' E 135°23'0 0.1
2015-Mar-26 14:32N 34°34' E 135°23'0 0.0
2015-Mar-26 13:26N 34°34' E 135°23'0 0.0
2015-Mar-26 12:26N 34°34' E 135°23'0 0.0
2015-Mar-26 11:20N 34°34' E 135°23'0 0.0
2015-Mar-26 10:14N 34°34' E 135°23'0 0.0
2015-Mar-26 09:32N 34°34' E 135°23'0 0.0
2015-Mar-26 08:32N 34°34' E 135°23'0 0.0
2015-Mar-26 07:26N 34°34' E 135°23'0 0.0
2015-Mar-26 06:26N 34°34' E 135°23'2 1.0
2015-Mar-26 04:32N 34°36' E 135°22'4 3.4
2015-Mar-26 03:29N 34°34' E 135°26'0 0.0
2015-Mar-26 02:23N 34°34' E 135°26'0 0.0
2015-Mar-26 01:29N 34°34' E 135°26'2 1.9
2015-Mar-26 00:33N 34°36' E 135°25'7 6.9
2015-Mar-25 23:33N 34°32' E 135°18'1111.0
2015-Mar-25 22:33N 34°24' E 135°08'1010.1
2015-Mar-25 21:33N 34°17' E 134°60'1010.3
2015-Mar-25 20:33N 34°07' E 135°01'9 0.2
2015-Mar-24 07:28N 33°58' E 135°01'1213.3
2015-Mar-24 06:33N 34°10' E 134°59'1512.9
2015-Mar-24 05:23N 34°25' E 135°04'1012.2
2015-Mar-24 04:33N 34°31' E 135°14'1010.2
2015-Mar-24 03:34N 34°36' E 135°25'1 1.0
2015-Mar-24 02:25N 34°34' E 135°26'0 0.0
2015-Mar-24 01:31N 34°34' E 135°26'0 0.0
2015-Mar-24 00:31N 34°34' E 135°26'6 5.8
2015-Mar-23 23:33N 34°33' E 135°19'1111.1
2015-Mar-23 22:33N 34°26' E 135°09'1110.8
2015-Mar-23 21:32N 34°18' E 135°00'1010.1
2015-Mar-23 20:33N 34°08' E 135°00'  
2015-Mar-21 07:33N 33°57' E 135°01'1212.4
2015-Mar-21 06:33N 34°09' E 134°59'1612.4
2015-Mar-21 05:18N 34°24' E 135°05'912.6
2015-Mar-21 04:33N 34°30' E 135°13'1110.8
2015-Mar-21 03:33N 34°36' E 135°24'2 1.6
2015-Mar-21 02:29N 34°35' E 135°26'0 0.0
2015-Mar-21 01:29N 34°35' E 135°26'0 0.0
2015-Mar-21 00:11N 34°35' E 135°26'0 0.0
2015-Mar-20 22:33N 34°35' E 135°26'3 2.3
2015-Mar-20 21:26N 34°36' E 135°23'0 0.0
2015-Mar-20 20:32N 34°36' E 135°23'0 0.0
2015-Mar-20 19:32N 34°36' E 135°23'0 0.0
2015-Mar-20 18:32N 34°36' E 135°23'0 0.0
2015-Mar-20 17:32N 34°36' E 135°23'0 0.0
2015-Mar-20 16:32N 34°36' E 135°23'0 0.0
2015-Mar-20 15:32N 34°36' E 135°23'0 0.0
2015-Mar-20 14:32N 34°36' E 135°23'0 0.0
2015-Mar-20 13:32N 34°36' E 135°23'4 4.4
2015-Mar-20 12:33N 34°35' E 135°18'1111.2
2015-Mar-20 11:33N 34°35' E 135°04'8 7.5
2015-Mar-20 10:32N 34°35' E 134°55'29 2.3
2015-Mar-19 22:11N 34°08' E 134°45'  
Track history (hours):
 
Tides and Currents Weather Stations Pressure Air Temp Water Temp Dewpoint Dewpoint Depression Visibility Wind Speed Wind Dir Waves Ship Positions

Oval Lp No.11

Last reported at 2015-Mar-28 11:30 UTC. Time now 2015-Mar-28 22:17 UTC.
Position N 34°03' E 134°60'.

Length 67 m; draft 3.6 m.

Type: Ship (hazmat cat A). MMSI: 431500366.

Date/timePositionNaut miles runAvg speedWind from/ knotsBaromVisibWave heightAir tempDewpointWater temp
2015-Mar-28 11:30N 34°03' E 134°60'1212.6
2015-Mar-28 10:33N 34°15' E 134°59'1111.1
2015-Mar-28 09:31N 34°25' E 135°06'1111.3
2015-Mar-28 08:33N 34°32' E 135°16'8 8.2
2015-Mar-28 07:33N 34°34' E 135°26'0 0.1
2015-Mar-28 06:28N 34°34' E 135°26'0 0.0
2015-Mar-28 05:28N 34°34' E 135°26'0 0.0
2015-Mar-28 04:28N 34°34' E 135°26'1 0.5
2015-Mar-28 02:14N 34°33' E 135°26'0 0.0
2015-Mar-28 00:26N 34°33' E 135°26'2 2.5
2015-Mar-27 23:32N 34°33' E 135°24'3 2.9
2015-Mar-27 22:30N 34°32' E 135°20'0 0.0
2015-Mar-27 21:24N 34°32' E 135°20'0 0.0
2015-Mar-27 20:30N 34°32' E 135°20'0 0.0
2015-Mar-27 19:18N 34°32' E 135°20'0 0.0
2015-Mar-27 18:24N 34°32' E 135°20'0 0.0
2015-Mar-27 17:12N 34°32' E 135°20'0 0.0
2015-Mar-27 15:30N 34°32' E 135°20'0 0.0
2015-Mar-27 14:30N 34°32' E 135°20'0 0.0
2015-Mar-27 13:30N 34°32' E 135°20'0 0.0
2015-Mar-27 12:30N 34°32' E 135°20'0 0.0
2015-Mar-27 11:24N 34°32' E 135°20'0 0.0
2015-Mar-27 10:30N 34°32' E 135°20'0 0.0
2015-Mar-27 09:33N 34°32' E 135°20'5 4.8
2015-Mar-27 08:31N 34°34' E 135°26'0 0.0
2015-Mar-27 05:32N 34°34' E 135°26'2 2.2
2015-Mar-27 04:24N 34°36' E 135°23'0 0.0
2015-Mar-27 03:18N 34°36' E 135°23'2 3.2
2015-Mar-27 02:32N 34°33' E 135°24'1 0.5
2015-Mar-27 01:14N 34°34' E 135°25'0 0.0
2015-Mar-27 00:31N 34°34' E 135°25'0 0.0
2015-Mar-26 23:32N 34°34' E 135°25'2 1.5
2015-Mar-26 22:14N 34°34' E 135°23'0 0.0
2015-Mar-26 21:08N 34°34' E 135°23'0 0.0
2015-Mar-26 20:32N 34°34' E 135°23'0 0.0
2015-Mar-26 19:32N 34°34' E 135°23'0 0.0
2015-Mar-26 18:26N 34°34' E 135°23'0 0.0
2015-Mar-26 15:32N 34°34' E 135°23'0 0.1
2015-Mar-26 14:32N 34°34' E 135°23'0 0.0
2015-Mar-26 13:26N 34°34' E 135°23'0 0.0
2015-Mar-26 12:26N 34°34' E 135°23'0 0.0
2015-Mar-26 11:20N 34°34' E 135°23'0 0.0
2015-Mar-26 10:14N 34°34' E 135°23'0 0.0
2015-Mar-26 09:32N 34°34' E 135°23'0 0.0
2015-Mar-26 08:32N 34°34' E 135°23'0 0.0
2015-Mar-26 07:26N 34°34' E 135°23'0 0.0
2015-Mar-26 06:26N 34°34' E 135°23'2 1.0
2015-Mar-26 04:32N 34°36' E 135°22'4 3.4
2015-Mar-26 03:29N 34°34' E 135°26'0 0.0
2015-Mar-26 02:23N 34°34' E 135°26'0 0.0
2015-Mar-26 01:29N 34°34' E 135°26'2 1.9
2015-Mar-26 00:33N 34°36' E 135°25'7 6.9
2015-Mar-25 23:33N 34°32' E 135°18'1111.0
2015-Mar-25 22:33N 34°24' E 135°08'1010.1
2015-Mar-25 21:33N 34°17' E 134°60'1010.3
2015-Mar-25 20:33N 34°07' E 135°01'9 0.2
2015-Mar-24 07:28N 33°58' E 135°01'1213.3
2015-Mar-24 06:33N 34°10' E 134°59'1512.9
2015-Mar-24 05:23N 34°25' E 135°04'1012.2
2015-Mar-24 04:33N 34°31' E 135°14'1010.2
2015-Mar-24 03:34N 34°36' E 135°25'1 1.0
2015-Mar-24 02:25N 34°34' E 135°26'0 0.0
2015-Mar-24 01:31N 34°34' E 135°26'0 0.0
2015-Mar-24 00:31N 34°34' E 135°26'6 5.8
2015-Mar-23 23:33N 34°33' E 135°19'1111.1
2015-Mar-23 22:33N 34°26' E 135°09'1110.8
2015-Mar-23 21:32N 34°18' E 135°00'1010.1
2015-Mar-23 20:33N 34°08' E 135°00'  
2015-Mar-21 07:33N 33°57' E 135°01'1212.4
2015-Mar-21 06:33N 34°09' E 134°59'1612.4
2015-Mar-21 05:18N 34°24' E 135°05'912.6
2015-Mar-21 04:33N 34°30' E 135°13'1110.8
2015-Mar-21 03:33N 34°36' E 135°24'2 1.6
2015-Mar-21 02:29N 34°35' E 135°26'0 0.0
2015-Mar-21 01:29N 34°35' E 135°26'0 0.0
2015-Mar-21 00:11N 34°35' E 135°26'0 0.0
2015-Mar-20 22:33N 34°35' E 135°26'3 2.3
2015-Mar-20 21:26N 34°36' E 135°23'0 0.0
2015-Mar-20 20:32N 34°36' E 135°23'0 0.0
2015-Mar-20 19:32N 34°36' E 135°23'0 0.0
2015-Mar-20 18:32N 34°36' E 135°23'0 0.0
2015-Mar-20 17:32N 34°36' E 135°23'0 0.0
2015-Mar-20 16:32N 34°36' E 135°23'0 0.0
2015-Mar-20 15:32N 34°36' E 135°23'0 0.0
2015-Mar-20 14:32N 34°36' E 135°23'0 0.0
2015-Mar-20 13:32N 34°36' E 135°23'4 4.4
2015-Mar-20 12:33N 34°35' E 135°18'1111.2
2015-Mar-20 11:33N 34°35' E 135°04'8 7.5
2015-Mar-20 10:32N 34°35' E 134°55'29 2.3
2015-Mar-19 22:11N 34°08' E 134°45'  

Dump ship's entire track history